Accueil
METAR-TAF:

METAR-TAF

Aéroports :

Brive-la-Gaillarde, France

Aéroport de Brive-Vallée de la Dordogne

latitude: 45-02-28N, longitude: 001-28-59E, altitude: 311 m

Observation

Le bulletin a été fait il y a 22 minutes, à 18:00 UTC
Vent 4 kt de nord-ouest
Température 1°C
Humidité 93%
Pression 1023 hPa
Visibilité 10 km ou plus
Quelques nuages à une hauteur de 3900 ft

METAR: LFSL 161800Z AUTO 32004KT 9999 FEW039 01/00 Q1023 NOSIG

Heure: 19:22 (18:22 UTC)

Prévision

Le bulletin a été fait il y a 1 heure et 22 minutes, à 17:00 UTC
Prévision valable du 16 à 18 UTC au 17 à 03 UTC
Vent 5 kt de ouest
Visibilité 10 km ou plus
Nuages épars à une hauteur de 4000 ft
Probabilité 30% :
Temporairement
du 16 à 21 UTC au 17 à 03 UTC
Nuages fragmentés à une hauteur de 500 ft

TAF: LFSL 161700Z 1618/1703 28005KT 9999 SCT040 PROB30 TEMPO 1621/1703 BKN005

Observations et prévisions météorologiques de plus de 4000 aéroports (messages METAR et TAF).

Les stations disponibles sont représentées par des disques jaunes et rouges sur la carte.

Passer la souris dessus pour voir le nom de la station.

Cliquer dessus pour voir les observations et prévisions météorologiques.

Pour changer de carte: cliquez sur les boutons verts avec une croix noire pour zoomer, sur le bouton vert avec un tiret pour effectuer un zoom arrière, ou sur les flèches vertes pour les cartes adjacentes.


METAR-TAF: